Time;durP1;ratioP1;P1;durP2;ratioP2;P2;SDS_P1;SDS_P2;PMS_P1;PMS_P2;Temp;Humidity;BMP_temperature;BMP_pressure;BME280_temperature;BME280_humidity;BME280_pressure;Samples;Min_cycle;Max_cycle;Signal;HPM_P1;HPM_P2
2022/03/29 00:01:59;;;;;;;24.15;11.13;;;9.50;67.60;;;;;;5033403;28;20330;-65
2022/03/29 00:04:25;;;;;;;22.25;11.07;;;9.50;67.80;;;;;;5029115;28;20030;-65
2022/03/29 00:06:52;;;;;;;21.27;10.52;;;9.50;68.00;;;;;;5022492;28;20029;-65
2022/03/29 00:09:21;;;;;;;26.08;11.80;;;9.40;68.50;;;;;;5023111;28;20049;-65
2022/03/29 00:11:48;;;;;;;19.42;11.32;;;9.30;69.00;;;;;;5020682;28;20030;-64
2022/03/29 00:14:13;;;;;;;21.02;10.88;;;9.20;69.40;;;;;;5026735;28;20315;-65
2022/03/29 00:16:40;;;;;;;23.70;10.88;;;9.10;69.70;;;;;;5029846;28;20028;-65
2022/03/29 00:19:06;;;;;;;24.30;12.52;;;9.10;69.80;;;;;;5029468;28;20029;-65
2022/03/29 00:21:31;;;;;;;21.63;11.25;;;9.20;69.30;;;;;;5022422;28;20048;-65
2022/03/29 00:23:57;;;;;;;22.38;11.68;;;9.20;68.90;;;;;;5026427;28;20067;-65
2022/03/29 00:26:23;;;;;;;19.58;11.15;;;9.30;69.30;;;;;;5022814;28;20025;-65
2022/03/29 00:28:49;;;;;;;23.17;11.52;;;9.30;69.50;;;;;;5033203;28;20108;-65
2022/03/29 00:31:22;;;;;;;19.63;11.00;;;9.30;69.60;;;;;;5032317;28;20061;-65
2022/03/29 00:33:49;;;;;;;20.15;10.95;;;9.20;69.50;;;;;;5046806;28;20033;-65
2022/03/29 00:36:14;;;;;;;19.63;10.68;;;9.30;69.40;;;;;;5036985;28;20114;-65
2022/03/29 00:38:41;;;;;;;22.42;10.73;;;9.20;69.80;;;;;;5027416;28;20069;-65
2022/03/29 00:41:06;;;;;;;21.88;10.95;;;9.10;70.50;;;;;;5022344;28;20370;-65
2022/03/29 00:43:35;;;;;;;19.77;11.05;;;9.00;70.80;;;;;;5019857;28;20018;-65
2022/03/29 00:46:02;;;;;;;22.33;10.88;;;8.90;70.60;;;;;;5028413;28;20029;-65
2022/03/29 00:48:27;;;;;;;23.70;11.75;;;9.00;70.20;;;;;;5026765;28;20019;-65
2022/03/29 00:50:54;;;;;;;23.17;10.80;;;9.00;70.40;;;;;;5028084;28;20036;-65
2022/03/29 00:53:22;;;;;;;23.10;11.73;;;9.00;70.70;;;;;;5022523;28;20472;-65
2022/03/29 00:55:49;;;;;;;19.88;10.48;;;9.10;70.50;;;;;;5029829;28;20021;-65
2022/03/29 00:58:15;;;;;;;17.83;10.50;;;9.00;70.80;;;;;;5032642;28;20753;-65
2022/03/29 01:00:42;;;;;;;23.10;11.35;;;9.00;70.50;;;;;;5020319;28;20026;-65
2022/03/29 01:03:08;;;;;;;18.05;10.68;;;9.20;70.00;;;;;;5027454;28;20030;-64
2022/03/29 01:05:33;;;;;;;19.33;10.80;;;9.20;70.40;;;;;;5026279;28;20025;-64
2022/03/29 01:08:00;;;;;;;27.63;11.93;;;9.10;70.30;;;;;;5021074;28;20069;-65
2022/03/29 01:10:27;;;;;;;24.85;11.48;;;9.20;69.90;;;;;;5023865;28;20066;-65
2022/03/29 01:12:54;;;;;;;23.52;11.10;;;9.50;68.60;;;;;;5027457;28;20087;-64
2022/03/29 01:15:22;;;;;;;20.08;9.98;;;9.60;68.00;;;;;;5028068;28;20060;-65
2022/03/29 01:17:49;;;;;;;20.83;11.15;;;9.60;68.20;;;;;;5027159;28;20172;-65
2022/03/29 01:20:35;;;;;;;19.83;10.70;;;9.60;67.30;;;;;;5030037;28;20026;-65
2022/03/29 01:23:01;;;;;;;24.75;12.05;;;9.70;67.40;;;;;;5022848;28;20096;-65
2022/03/29 01:25:32;;;;;;;22.25;10.45;;;9.40;68.30;;;;;;5023050;28;20025;-65
2022/03/29 01:28:00;;;;;;;21.23;10.63;;;9.10;69.20;;;;;;5019357;28;20029;-65
2022/03/29 01:30:26;;;;;;;19.63;10.93;;;8.90;70.30;;;;;;5027861;28;20630;-65
2022/03/29 01:32:53;;;;;;;23.98;12.80;;;8.80;70.70;;;;;;5030156;28;20112;-65
2022/03/29 01:35:21;;;;;;;19.10;11.02;;;8.60;71.50;;;;;;5022123;28;20017;-65
2022/03/29 01:37:48;;;;;;;19.05;11.73;;;8.40;72.00;;;;;;5022428;28;20029;-65
2022/03/29 01:40:16;;;;;;;19.77;10.95;;;8.10;73.10;;;;;;5026909;28;20497;-65
2022/03/29 01:42:55;;;;;;;18.95;10.88;;;7.90;73.60;;;;;;5020674;28;20029;-65
2022/03/29 01:45:28;;;;;;;20.95;11.73;;;7.70;75.10;;;;;;5022835;28;20025;-65
2022/03/29 01:47:54;;;;;;;28.67;10.27;;;7.40;75.60;;;;;;5025408;28;20029;-65
2022/03/29 01:50:20;;;;;;;22.17;11.02;;;7.30;76.60;;;;;;5018844;28;20022;-65
2022/03/29 01:52:47;;;;;;;24.38;11.15;;;7.10;76.90;;;;;;5023222;28;20319;-65
2022/03/29 01:55:16;;;;;;;23.88;12.98;;;7.00;76.70;;;;;;5029985;28;20021;-65
2022/03/29 01:57:44;;;;;;;23.80;12.82;;;6.90;76.40;;;;;;5025714;28;20018;-65
2022/03/29 02:03:01;;;;;;;22.65;12.13;;;6.80;76.20;;;;;;5031274;28;20087;-65
2022/03/29 02:05:27;;;;;;;22.67;13.13;;;6.70;77.00;;;;;;5024716;28;20108;-65
2022/03/29 02:07:53;;;;;;;22.52;11.85;;;6.50;77.90;;;;;;5023614;28;20065;-65
2022/03/29 02:10:20;;;;;;;21.40;12.68;;;6.30;78.20;;;;;;5022909;28;20046;-65
2022/03/29 02:12:50;;;;;;;25.38;11.10;;;6.10;78.80;;;;;;5020422;28;20730;-65
2022/03/29 02:15:16;;;;;;;21.02;11.85;;;6.00;79.80;;;;;;5018147;28;20032;-65
2022/03/29 02:17:44;;;;;;;24.73;12.27;;;6.00;80.40;;;;;;5020152;28;20026;-64
2022/03/29 02:20:10;;;;;;;20.10;10.85;;;6.00;80.70;;;;;;5028883;28;20116;-64
2022/03/29 02:22:36;;;;;;;22.88;12.60;;;6.20;80.30;;;;;;5024149;28;20026;-64
2022/03/29 02:25:01;;;;;;;22.80;12.40;;;6.30;79.90;;;;;;5021762;28;20040;-64
2022/03/29 02:27:27;;;;;;;20.73;11.35;;;6.50;79.50;;;;;;5023131;28;20041;-64
2022/03/29 02:29:53;;;;;;;21.40;11.60;;;6.50;79.50;;;;;;5025601;28;20469;-66
2022/03/29 02:32:19;;;;;;;22.25;11.50;;;6.50;79.60;;;;;;5028594;28;20068;-67
2022/03/29 02:34:47;;;;;;;25.85;10.27;;;6.50;79.30;;;;;;5029916;28;20037;-65
2022/03/29 02:37:13;;;;;;;18.60;9.77;;;6.60;78.00;;;;;;5027601;28;20327;-65
2022/03/29 02:39:39;;;;;;;19.35;9.95;;;6.80;77.60;;;;;;5032024;28;20032;-66
2022/03/29 02:42:06;;;;;;;19.42;10.10;;;6.90;76.90;;;;;;5041553;28;20033;-66
2022/03/29 02:44:32;;;;;;;17.45;10.18;;;6.90;77.00;;;;;;5031996;28;20021;-66
2022/03/29 02:46:57;;;;;;;21.38;10.75;;;7.00;76.90;;;;;;5029027;28;20436;-64
2022/03/29 02:49:24;;;;;;;20.20;10.25;;;7.10;76.00;;;;;;5024158;28;20025;-64
2022/03/29 02:51:53;;;;;;;59.67;31.30;;;7.20;75.50;;;;;;5021607;28;20041;-65
2022/03/29 02:54:19;;;;;;;20.33;11.07;;;7.10;75.80;;;;;;5028349;28;20045;-65
2022/03/29 02:56:45;;;;;;;18.90;12.25;;;7.20;75.60;;;;;;5021403;28;20119;-64
2022/03/29 02:59:11;;;;;;;18.75;10.48;;;7.20;75.20;;;;;;5027054;28;20096;-64
2022/03/29 03:01:37;;;;;;;26.33;15.40;;;7.30;74.80;;;;;;5025300;28;20418;-65
2022/03/29 03:04:03;;;;;;;22.08;11.68;;;7.50;74.00;;;;;;5030339;28;20048;-65
2022/03/29 03:06:28;;;;;;;20.38;12.15;;;7.50;73.70;;;;;;5025015;28;20033;-65
2022/03/29 03:08:54;;;;;;;19.38;10.90;;;7.40;75.70;;;;;;5033068;28;20032;-65
2022/03/29 03:11:20;;;;;;;23.13;10.60;;;7.30;75.50;;;;;;5024138;28;20351;-65
2022/03/29 03:13:46;;;;;;;22.13;11.10;;;7.30;74.90;;;;;;5029486;28;20025;-65
2022/03/29 03:16:12;;;;;;;18.48;10.48;;;7.40;75.30;;;;;;5019711;28;20026;-64
2022/03/29 03:18:38;;;;;;;20.35;10.65;;;7.40;75.10;;;;;;5031237;28;20032;-67
2022/03/29 03:21:04;;;;;;;17.50;10.27;;;7.50;74.10;;;;;;5027739;28;20033;-65
2022/03/29 03:23:30;;;;;;;22.98;11.20;;;7.50;74.70;;;;;;5027774;28;20030;-64
2022/03/29 03:25:56;;;;;;;17.42;10.13;;;7.60;74.00;;;;;;5025336;28;20109;-64
2022/03/29 03:28:22;;;;;;;18.90;10.23;;;7.50;74.10;;;;;;5031111;28;20774;-64
2022/03/29 03:30:48;;;;;;;18.55;10.40;;;7.40;75.10;;;;;;5029875;28;20079;-65
2022/03/29 03:33:13;;;;;;;20.38;9.95;;;7.20;75.10;;;;;;5034481;28;20033;-64
2022/03/29 03:35:39;;;;;;;16.88;10.10;;;7.40;74.70;;;;;;5029144;28;20018;-64
2022/03/29 03:38:07;;;;;;;18.02;10.10;;;7.30;75.80;;;;;;5024983;28;20414;-65
2022/03/29 03:40:33;;;;;;;20.48;10.43;;;7.20;75.60;;;;;;5029276;28;20030;-65
2022/03/29 03:43:00;;;;;;;19.25;10.15;;;7.20;75.30;;;;;;5027316;28;20037;-64
2022/03/29 03:45:26;;;;;;;20.90;10.40;;;7.20;75.30;;;;;;5023895;28;20026;-64
2022/03/29 03:47:51;;;;;;;19.02;10.82;;;7.40;74.20;;;;;;5024224;28;20030;-64
2022/03/29 03:50:17;;;;;;;17.55;9.63;;;7.60;73.80;;;;;;5031660;28;20083;-65
2022/03/29 03:52:43;;;;;;;19.27;10.52;;;7.70;72.90;;;;;;5035178;28;20455;-65
2022/03/29 03:55:11;;;;;;;18.30;10.30;;;7.70;72.90;;;;;;5027470;28;20032;-64
2022/03/29 03:57:37;;;;;;;49.10;24.70;;;7.70;73.10;;;;;;5033619;28;20034;-65
2022/03/29 04:00:06;;;;;;;27.63;13.32;;;7.70;72.40;;;;;;5032947;28;20323;-64
2022/03/29 04:02:32;;;;;;;23.08;10.43;;;7.50;75.20;;;;;;5026269;28;20034;-65
2022/03/29 04:04:58;;;;;;;29.70;10.50;;;7.40;73.60;;;;;;5028926;28;20080;-65
2022/03/29 04:07:23;;;;;;;23.48;9.68;;;7.40;74.80;;;;;;5024286;28;20021;-65
2022/03/29 04:09:49;;;;;;;27.30;11.20;;;7.20;75.10;;;;;;5026741;28;20065;-64
2022/03/29 04:12:15;;;;;;;20.48;10.45;;;7.10;75.70;;;;;;5030319;28;20069;-65
2022/03/29 04:14:40;;;;;;;21.73;11.02;;;7.00;75.80;;;;;;5029696;28;20045;-64
2022/03/29 04:17:06;;;;;;;21.60;10.32;;;7.00;75.50;;;;;;5024258;28;20025;-65
2022/03/29 04:19:32;;;;;;;21.60;10.00;;;6.90;76.40;;;;;;5022414;28;20026;-65
2022/03/29 04:21:58;;;;;;;22.80;9.40;;;7.00;74.60;;;;;;5032609;28;20092;-65
2022/03/29 04:24:24;;;;;;;17.27;9.40;;;7.30;73.90;;;;;;5034116;28;20064;-65
2022/03/29 04:26:51;;;;;;;17.42;9.82;;;7.30;73.90;;;;;;5030901;28;20034;-64
2022/03/29 04:29:17;;;;;;;19.33;10.65;;;7.20;74.60;;;;;;5020545;28;20029;-64
2022/03/29 04:31:43;;;;;;;16.88;9.88;;;7.20;74.20;;;;;;5025597;28;20033;-65
2022/03/29 04:34:09;;;;;;;19.95;10.23;;;7.20;74.60;;;;;;5027218;28;20056;-64
2022/03/29 04:36:34;;;;;;;17.80;9.25;;;7.40;74.00;;;;;;5021111;28;20029;-64
2022/03/29 04:39:01;;;;;;;20.30;9.65;;;7.50;72.50;;;;;;5036162;28;20049;-65
2022/03/29 04:41:26;;;;;;;16.13;9.07;;;7.70;72.80;;;;;;5029028;28;20067;-64
2022/03/29 04:43:52;;;;;;;19.48;9.75;;;7.80;71.80;;;;;;5017705;28;20037;-65
2022/03/29 04:46:20;;;;;;;20.77;10.07;;;7.80;72.80;;;;;;5034575;28;20108;-64
2022/03/29 04:48:46;;;;;;;18.50;10.23;;;7.70;72.20;;;;;;5025034;28;20084;-64
2022/03/29 04:51:12;;;;;;;16.20;8.90;;;7.50;74.70;;;;;;5031640;28;20373;-65
2022/03/29 04:53:38;;;;;;;16.17;10.05;;;7.50;74.10;;;;;;5031500;28;20026;-65
2022/03/29 04:56:05;;;;;;;15.32;9.23;;;7.50;72.70;;;;;;5035231;28;20036;-65
2022/03/29 04:58:30;;;;;;;16.35;9.43;;;7.80;71.50;;;;;;5028458;28;20026;-63
2022/03/29 05:00:58;;;;;;;19.05;9.98;;;7.90;72.00;;;;;;5032578;28;20033;-64
2022/03/29 05:03:26;;;;;;;15.77;8.85;;;8.00;70.00;;;;;;5031549;28;20042;-64
2022/03/29 05:05:52;;;;;;;17.13;9.50;;;8.20;70.30;;;;;;5038334;28;20035;-65
2022/03/29 05:08:18;;;;;;;15.85;9.50;;;8.20;69.50;;;;;;5020912;28;20025;-64
2022/03/29 05:10:43;;;;;;;17.83;8.70;;;8.30;70.80;;;;;;5019765;28;20494;-65
2022/03/29 05:13:09;;;;;;;14.98;9.23;;;8.20;70.80;;;;;;5031004;28;20026;-65
2022/03/29 05:15:36;;;;;;;18.13;9.52;;;8.10;71.20;;;;;;5023910;28;20029;-63
2022/03/29 05:18:02;;;;;;;14.57;9.10;;;8.10;69.50;;;;;;5025259;28;20384;-64
2022/03/29 05:20:28;;;;;;;17.88;9.52;;;8.30;70.40;;;;;;5034654;28;20350;-64
2022/03/29 05:22:57;;;;;;;18.35;9.18;;;8.20;72.40;;;;;;5017154;28;20084;-64
2022/03/29 05:25:25;;;;;;;16.58;9.77;;;8.00;72.70;;;;;;5017392;28;20068;-67
2022/03/29 05:28:00;;;;;;;17.13;9.38;;;7.90;73.80;;;;;;5016023;28;20125;-66
2022/03/29 05:30:26;;;;;;;15.30;9.68;;;7.80;72.90;;;;;;5017704;28;20025;-66
2022/03/29 05:32:57;;;;;;;17.63;9.90;;;8.10;72.00;;;;;;5035426;28;20028;-65
2022/03/29 05:35:26;;;;;;;19.10;9.40;;;8.20;72.50;;;;;;5020982;28;20418;-65
2022/03/29 05:37:51;;;;;;;18.63;9.68;;;8.20;73.40;;;;;;5026468;28;20025;-65
2022/03/29 05:40:20;;;;;;;18.38;9.35;;;8.20;71.70;;;;;;5036635;28;20057;-66
2022/03/29 05:42:46;;;;;;;16.85;9.02;;;8.40;72.20;;;;;;5028916;28;20112;-66
2022/03/29 05:45:13;;;;;;;21.17;10.68;;;8.40;72.40;;;;;;5026797;28;20385;-65
2022/03/29 05:50:27;;;;;;;33.67;18.17;;;8.70;70.80;;;;;;5035776;28;20473;-65
2022/03/29 05:52:53;;;;;;;18.77;10.05;;;9.00;69.80;;;;;;5034882;28;20117;-65
2022/03/29 05:55:20;;;;;;;16.73;9.95;;;9.00;71.90;;;;;;5036435;28;20101;-65
2022/03/29 05:57:49;;;;;;;18.92;9.80;;;9.00;72.40;;;;;;5023929;28;20041;-65
2022/03/29 06:00:16;;;;;;;17.40;10.65;;;9.00;71.20;;;;;;5026464;28;20029;-65
2022/03/29 06:02:41;;;;;;;20.25;12.05;;;9.20;69.20;;;;;;5036410;28;20125;-65
2022/03/29 06:05:09;;;;;;;21.60;11.45;;;9.40;70.90;;;;;;5035875;28;20057;-66
2022/03/29 06:07:34;;;;;;;19.38;10.57;;;9.60;69.30;;;;;;5036134;28;20096;-65
2022/03/29 06:10:00;;;;;;;18.25;10.68;;;9.70;69.80;;;;;;5035558;28;20350;-65
2022/03/29 06:12:26;;;;;;;18.20;10.10;;;10.00;68.10;;;;;;5036081;28;20101;-65
2022/03/29 06:14:52;;;;;;;14.55;9.63;;;10.20;66.70;;;;;;5035054;28;20083;-65
2022/03/29 06:17:17;;;;;;;16.10;10.02;;;10.30;68.40;;;;;;5036247;28;20053;-66
2022/03/29 06:19:44;;;;;;;17.77;10.93;;;10.50;66.50;;;;;;5030310;28;20030;-65
2022/03/29 06:22:10;;;;;;;18.77;11.38;;;10.90;64.60;;;;;;5016452;28;20033;-65
2022/03/29 06:24:36;;;;;;;18.63;10.57;;;11.20;63.90;;;;;;5016113;28;20109;-66
2022/03/29 06:27:02;;;;;;;17.92;10.32;;;11.50;62.90;;;;;;5016397;28;20097;-66
2022/03/29 06:29:31;;;;;;;16.48;11.00;;;11.80;62.90;;;;;;5017990;28;20046;-65
2022/03/29 06:31:57;;;;;;;17.95;9.85;;;11.90;62.70;;;;;;5035597;28;20061;-65
2022/03/29 06:34:22;;;;;;;15.73;10.02;;;12.00;62.70;;;;;;5034232;28;20630;-65
2022/03/29 06:36:48;;;;;;;15.57;9.95;;;12.20;61.50;;;;;;5036049;28;20310;-66
2022/03/29 06:39:14;;;;;;;19.40;9.45;;;12.30;61.40;;;;;;5035648;28;20025;-65
2022/03/29 06:41:41;;;;;;;18.73;10.77;;;12.40;61.10;;;;;;5035774;28;20036;-66
2022/03/29 06:44:08;;;;;;;16.00;10.38;;;12.60;60.70;;;;;;5022470;28;20407;-65
2022/03/29 06:46:40;;;;;;;16.90;10.57;;;12.60;60.50;;;;;;5035452;28;20083;-66
2022/03/29 06:49:06;;;;;;;18.83;10.13;;;12.70;61.10;;;;;;5035657;28;20411;-65
2022/03/29 06:51:33;;;;;;;16.02;10.27;;;12.70;64.60;;;;;;5035636;28;20099;-66
2022/03/29 06:54:00;;;;;;;15.27;9.73;;;12.70;61.50;;;;;;5024628;28;20054;-65
2022/03/29 06:56:26;;;;;;;15.40;9.63;;;12.80;59.90;;;;;;5016806;28;20033;-65
2022/03/29 06:58:52;;;;;;;15.50;9.63;;;13.00;59.80;;;;;;5014814;28;20539;-65
2022/03/29 07:01:18;;;;;;;18.27;10.85;;;13.20;59.30;;;;;;5020575;28;20033;-65
2022/03/29 07:03:44;;;;;;;14.85;9.15;;;13.40;59.50;;;;;;5033190;28;20334;-66
2022/03/29 07:06:09;;;;;;;19.60;10.80;;;13.40;60.40;;;;;;5019837;28;20097;-65
2022/03/29 07:08:36;;;;;;;16.70;9.32;;;13.50;61.60;;;;;;5019649;28;20369;-66
2022/03/29 07:11:17;;;;;;;16.60;9.82;;;13.50;63.20;;;;;;5019666;28;20442;-65
2022/03/29 07:13:44;;;;;;;16.38;9.68;;;13.60;60.70;;;;;;5036627;28;20087;-66
2022/03/29 07:16:11;;;;;;;19.42;11.10;;;13.80;58.10;;;;;;5038867;28;20025;-65
2022/03/29 07:18:37;;;;;;;19.50;10.68;;;14.00;57.30;;;;;;5039334;28;20034;-65
2022/03/29 07:21:02;;;;;;;16.23;10.38;;;14.00;57.50;;;;;;5039330;28;20074;-66
2022/03/29 07:23:29;;;;;;;15.45;10.10;;;14.10;57.30;;;;;;5024287;28;20033;-66
2022/03/29 07:25:56;;;;;;;17.00;9.93;;;14.30;56.50;;;;;;5019465;28;20418;-66
2022/03/29 07:28:23;;;;;;;23.35;11.48;;;14.50;57.20;;;;;;5018212;28;20092;-65
2022/03/29 07:30:50;;;;;;;15.70;10.75;;;14.60;55.80;;;;;;5019519;28;20426;-65
2022/03/29 07:33:19;;;;;;;14.93;9.18;;;14.40;58.60;;;;;;5019291;28;20124;-65
2022/03/29 07:35:45;;;;;;;15.73;10.35;;;14.50;57.20;;;;;;5019253;28;20025;-65
2022/03/29 07:38:14;;;;;;;19.10;11.30;;;14.70;56.30;;;;;;5020563;28;20041;-66
2022/03/29 07:40:42;;;;;;;16.70;10.07;;;14.90;55.90;;;;;;5038857;28;20032;-65
2022/03/29 07:43:11;;;;;;;15.90;10.13;;;15.00;55.90;;;;;;5037732;28;20107;-65
2022/03/29 07:45:37;;;;;;;16.80;11.02;;;15.30;55.80;;;;;;5038499;28;20322;-65
2022/03/29 07:48:04;;;;;;;21.67;12.02;;;15.50;55.70;;;;;;5038210;28;20033;-66
2022/03/29 07:50:31;;;;;;;24.08;11.73;;;15.60;55.40;;;;;;5019059;28;20403;-66
2022/03/29 07:52:59;;;;;;;19.83;11.05;;;15.70;54.90;;;;;;5018910;28;20033;-65
2022/03/29 07:55:28;;;;;;;16.70;10.40;;;15.80;55.40;;;;;;5018840;28;20049;-65
2022/03/29 07:57:55;;;;;;;16.85;10.40;;;16.00;55.10;;;;;;5018969;28;20380;-65
2022/03/29 08:00:33;;;;;;;16.33;10.07;;;15.90;55.10;;;;;;5036156;28;20036;-65
2022/03/29 08:03:02;;;;;;;19.58;11.02;;;15.80;55.50;;;;;;5038636;28;20037;-65
2022/03/29 08:05:29;;;;;;;15.05;9.93;;;15.80;55.10;;;;;;5038711;28;20076;-65
2022/03/29 08:07:57;;;;;;;22.05;11.50;;;15.70;55.70;;;;;;5038357;28;20079;-65
2022/03/29 08:10:23;;;;;;;17.35;11.10;;;15.70;55.80;;;;;;5019843;28;20643;-65
2022/03/29 08:12:49;;;;;;;19.02;11.13;;;15.50;56.30;;;;;;5017653;28;20038;-64
2022/03/29 08:15:15;;;;;;;14.48;10.02;;;15.50;56.20;;;;;;5028585;28;20029;-65
2022/03/29 08:17:41;;;;;;;15.70;10.13;;;15.50;56.70;;;;;;5037246;28;20068;-64
2022/03/29 08:20:10;;;;;;;18.38;11.40;;;15.30;56.40;;;;;;5037250;28;20053;-66
2022/03/29 08:22:35;;;;;;;16.77;10.02;;;15.10;56.70;;;;;;5021979;28;20033;-66
2022/03/29 08:25:02;;;;;;;19.23;10.82;;;15.00;57.50;;;;;;5018221;28;20052;-66
2022/03/29 08:27:28;;;;;;;15.85;10.45;;;15.00;57.40;;;;;;5021575;28;20034;-66
2022/03/29 08:29:54;;;;;;;17.80;10.73;;;15.00;57.70;;;;;;5017169;28;20072;-66
2022/03/29 08:32:20;;;;;;;18.83;11.98;;;15.00;57.00;;;;;;5018248;28;20030;-66
2022/03/29 08:34:46;;;;;;;18.42;10.38;;;14.90;57.50;;;;;;5018206;28;20022;-66
2022/03/29 08:37:12;;;;;;;22.13;12.07;;;14.90;57.90;;;;;;5018011;28;20403;-65
2022/03/29 08:39:40;;;;;;;22.05;12.65;;;14.90;57.10;;;;;;5018091;28;20030;-65
2022/03/29 08:42:10;;;;;;;24.80;12.07;;;14.90;57.20;;;;;;5028846;28;20029;-66
2022/03/29 08:44:40;;;;;;;16.88;10.18;;;15.00;57.80;;;;;;5036113;28;20052;-65
2022/03/29 08:47:08;;;;;;;15.98;10.18;;;15.30;56.70;;;;;;5037673;28;20036;-65
2022/03/29 08:49:34;;;;;;;16.25;10.30;;;15.40;56.60;;;;;;5026152;28;20033;-65
2022/03/29 08:52:01;;;;;;;19.92;10.38;;;15.60;55.80;;;;;;5017836;28;20103;-65
2022/03/29 08:54:27;;;;;;;20.77;10.45;;;16.00;54.80;;;;;;5037381;28;20353;-65
2022/03/29 08:56:53;;;;;;;18.35;10.82;;;16.00;54.60;;;;;;5037461;28;20052;-65
2022/03/29 08:59:20;;;;;;;14.63;9.98;;;16.10;54.70;;;;;;5027666;28;20018;-65
2022/03/29 09:01:46;;;;;;;20.10;10.93;;;16.10;54.30;;;;;;5017709;28;20029;-65
2022/03/29 09:04:14;;;;;;;19.08;10.32;;;16.10;54.00;;;;;;5017601;28;20321;-66
2022/03/29 09:06:58;;;;;;;16.27;10.32;;;16.00;53.50;;;;;;5017612;28;20034;-65
2022/03/29 09:09:29;;;;;;;16.30;10.57;;;15.80;54.00;;;;;;5026288;28;20037;-66
2022/03/29 09:11:58;;;;;;;20.40;10.10;;;15.80;54.00;;;;;;5037094;28;20033;-66
2022/03/29 09:14:28;;;;;;;17.38;10.50;;;16.00;53.40;;;;;;5035754;28;20021;-65
2022/03/29 09:16:54;;;;;;;18.23;10.00;;;16.00;52.40;;;;;;5025001;28;20053;-66
2022/03/29 09:19:23;;;;;;;16.70;10.57;;;16.00;53.40;;;;;;5017309;28;20026;-65
2022/03/29 09:21:51;;;;;;;14.25;9.25;;;16.00;51.90;;;;;;5017524;28;20022;-65
2022/03/29 09:24:18;;;;;;;16.38;9.38;;;16.00;51.50;;;;;;5017129;28;20053;-66
2022/03/29 09:26:51;;;;;;;14.38;9.05;;;15.90;52.10;;;;;;5026488;28;20104;-65
2022/03/29 09:29:21;;;;;;;16.77;9.75;;;16.10;52.70;;;;;;5035912;28;20095;-66
2022/03/29 09:32:03;;;;;;;16.13;10.05;;;16.00;50.70;;;;;;5036768;28;20319;-65
2022/03/29 09:34:29;;;;;;;19.67;11.35;;;16.00;51.20;;;;;;5036807;28;20052;-65
2022/03/29 09:36:55;;;;;;;18.40;10.52;;;16.20;51.20;;;;;;5026026;28;20053;-65
2022/03/29 09:39:37;;;;;;;18.40;9.95;;;16.50;50.70;;;;;;5017013;28;20029;-65
2022/03/29 09:42:15;;;;;;;14.48;9.40;;;16.60;50.00;;;;;;5016749;28;20113;-65
2022/03/29 09:44:48;;;;;;;17.08;9.95;;;16.80;49.20;;;;;;5017130;28;20018;-65
2022/03/29 09:47:20;;;;;;;17.63;10.10;;;17.00;48.50;;;;;;5033593;28;20037;-65
2022/03/29 09:50:01;;;;;;;15.27;9.18;;;17.40;47.50;;;;;;5036595;28;20021;-65
2022/03/29 09:52:38;;;;;;;16.92;9.80;;;17.70;47.20;;;;;;5036345;28;20108;-65
2022/03/29 09:55:25;;;;;;;19.10;9.95;;;18.10;46.60;;;;;;5029142;28;20033;-65
2022/03/29 09:57:57;;;;;;;16.30;9.73;;;17.40;46.70;;;;;;5016638;28;20026;-64
2022/03/29 10:00:47;;;;;;;17.45;10.23;;;17.60;48.00;;;;;;5015940;28;20018;-64
2022/03/29 10:03:13;;;;;;;14.25;9.82;;;18.20;46.30;;;;;;5016884;28;20042;-65
2022/03/29 10:05:42;;;;;;;15.18;9.63;;;18.70;46.40;;;;;;5027400;28;20041;-64
2022/03/29 10:11:00;;;;;;;20.38;10.57;;;18.90;45.80;;;;;;5035987;28;20052;-64
2022/03/29 10:13:25;;;;;;;14.82;9.80;;;19.00;45.80;;;;;;5033054;28;20040;-65
2022/03/29 10:15:53;;;;;;;17.55;10.48;;;19.00;44.60;;;;;;5033566;28;20033;-65
2022/03/29 10:18:21;;;;;;;17.27;10.73;;;18.40;44.30;;;;;;5036229;28;20056;-65
2022/03/29 10:20:48;;;;;;;21.42;10.60;;;18.00;46.10;;;;;;5036100;28;20018;-65
2022/03/29 10:23:14;;;;;;;15.15;9.27;;;18.10;46.20;;;;;;5034682;28;20022;-65
2022/03/29 10:25:42;;;;;;;14.80;9.57;;;18.40;45.20;;;;;;5016809;28;20034;-65
2022/03/29 10:28:09;;;;;;;16.88;9.77;;;18.70;44.50;;;;;;5034270;28;20383;-65
2022/03/29 10:30:37;;;;;;;16.60;9.98;;;18.90;45.10;;;;;;5035593;28;20030;-65
2022/03/29 10:33:25;;;;;;;19.65;10.82;;;18.60;45.50;;;;;;5035177;28;20025;-65
2022/03/29 10:36:06;;;;;;;20.20;10.85;;;18.40;45.10;;;;;;4955235;28;20021;-64
2022/03/29 10:38:46;;;;;;;15.30;10.25;;;18.30;46.00;;;;;;5016249;28;20028;-64
2022/03/29 10:41:30;;;;;;;14.50;10.23;;;18.50;45.90;;;;;;5028063;28;20029;-65
2022/03/29 10:44:01;;;;;;;14.85;10.15;;;18.70;45.90;;;;;;5015108;28;20022;-64
2022/03/29 10:46:45;;;;;;;19.27;10.25;;;19.10;45.10;;;;;;5016146;28;20319;-65
2022/03/29 10:49:24;;;;;;;16.98;8.93;;;18.70;44.20;;;;;;5016906;28;20026;-64
2022/03/29 10:52:11;;;;;;;18.25;10.65;;;18.60;42.90;;;;;;5016135;28;20037;-65
2022/03/29 10:54:37;;;;;;;16.40;9.20;;;18.60;44.60;;;;;;5030689;28;20041;-64
2022/03/29 10:57:06;;;;;;;14.98;10.10;;;18.90;44.20;;;;;;5031314;28;20026;-65
2022/03/29 10:59:34;;;;;;;19.77;10.40;;;19.20;43.50;;;;;;5022991;28;20415;-65
2022/03/29 11:02:15;;;;;;;14.70;9.50;;;19.10;43.30;;;;;;5034395;28;20041;-64
2022/03/29 11:05:13;;;;;;;20.38;10.32;;;18.90;43.70;;;;;;5017726;28;20072;-64
2022/03/29 11:07:51;;;;;;;15.77;9.18;;;19.20;43.80;;;;;;5025284;28;20423;-64
2022/03/29 11:10:19;;;;;;;15.95;9.80;;;19.90;43.40;;;;;;5031202;28;20494;-64
2022/03/29 11:12:52;;;;;;;16.25;9.55;;;20.10;44.20;;;;;;5034021;28;20040;-64
2022/03/29 11:15:35;;;;;;;14.18;9.25;;;19.70;43.00;;;;;;5030954;28;20026;-66
2022/03/29 11:18:06;;;;;;;18.63;10.38;;;19.70;43.10;;;;;;5035452;28;20033;-65
2022/03/29 11:20:36;;;;;;;15.52;10.25;;;19.50;43.10;;;;;;5033647;28;20109;-65
2022/03/29 11:23:06;;;;;;;18.23;10.38;;;19.10;43.20;;;;;;5034616;28;20032;-65
2022/03/29 11:25:40;;;;;;;17.60;8.90;;;18.60;43.90;;;;;;5032356;28;20037;-65
2022/03/29 11:28:16;;;;;;;15.98;9.68;;;18.50;43.00;;;;;;5032700;28;20084;-65
2022/03/29 11:30:43;;;;;;;15.80;8.80;;;18.00;43.60;;;;;;5033552;28;20049;-65
2022/03/29 11:33:10;;;;;;;17.38;9.88;;;18.00;44.40;;;;;;5018961;28;20125;-65
2022/03/29 11:35:38;;;;;;;17.05;8.95;;;18.00;44.60;;;;;;5021896;28;20025;-65
2022/03/29 11:38:13;;;;;;;21.05;9.20;;;18.20;44.40;;;;;;5024184;28;20407;-65
2022/03/29 11:40:40;;;;;;;18.48;8.77;;;18.20;43.60;;;;;;5015531;28;20050;-64
2022/03/29 11:43:14;;;;;;;21.20;8.82;;;18.10;44.60;;;;;;5027373;28;20075;-65
2022/03/29 11:45:44;;;;;;;21.85;10.57;;;18.30;44.80;;;;;;5034840;28;20032;-64
2022/03/29 11:48:13;;;;;;;21.75;9.55;;;18.20;44.70;;;;;;5035946;28;20053;-64
2022/03/29 11:50:40;;;;;;;26.10;10.63;;;18.10;44.70;;;;;;5037266;28;20022;-64
2022/03/29 11:53:28;;;;;;;28.92;8.90;;;18.10;45.40;;;;;;5024789;28;20379;-64
2022/03/29 11:56:29;;;;;;;19.20;8.25;;;18.40;45.80;;;;;;5019934;28;20025;-64
2022/03/29 11:58:56;;;;;;;20.13;10.27;;;18.40;45.10;;;;;;5018271;28;20044;-66
2022/03/29 12:01:27;;;;;;;24.63;9.07;;;18.70;44.80;;;;;;5020027;28;20101;-65
2022/03/29 12:04:00;;;;;;;25.65;9.73;;;19.10;45.60;;;;;;5023637;28;20033;-65
2022/03/29 12:06:28;;;;;;;18.20;8.13;;;19.50;44.50;;;;;;5020224;28;20024;-65
2022/03/29 12:09:02;;;;;;;26.67;9.40;;;19.90;44.40;;;;;;5018774;28;20030;-64
2022/03/29 12:11:33;;;;;;;23.27;8.23;;;19.90;43.90;;;;;;5022470;28;20041;-65
2022/03/29 12:14:11;;;;;;;25.65;8.30;;;19.80;43.90;;;;;;5035228;28;20022;-65
2022/03/29 12:16:48;;;;;;;28.98;8.93;;;19.70;43.20;;;;;;5018581;28;20378;-65
2022/03/29 12:19:16;;;;;;;20.10;8.48;;;19.70;43.90;;;;;;5033181;28;20021;-66
2022/03/29 12:21:48;;;;;;;22.27;8.10;;;20.10;43.70;;;;;;5035804;28;20097;-65
2022/03/29 12:24:16;;;;;;;26.45;8.70;;;20.10;43.90;;;;;;5036116;28;20117;-65
2022/03/29 12:26:46;;;;;;;28.35;9.23;;;20.00;43.40;;;;;;5024318;28;20034;-65
2022/03/29 12:29:15;;;;;;;23.42;8.50;;;20.00;43.20;;;;;;5035391;28;20033;-65
2022/03/29 12:31:41;;;;;;;22.83;8.45;;;19.90;42.50;;;;;;5036276;28;20034;-65
2022/03/29 12:34:08;;;;;;;24.45;8.68;;;19.60;43.50;;;;;;5036228;28;20021;-65
2022/03/29 12:36:41;;;;;;;23.38;7.55;;;19.80;43.80;;;;;;5021099;28;20437;-65
2022/03/29 12:39:09;;;;;;;29.70;9.87;;;19.90;42.80;;;;;;5019208;28;20037;-65
2022/03/29 12:41:42;;;;;;;27.42;8.65;;;19.70;43.60;;;;;;5018147;28;20022;-65
2022/03/29 12:44:10;;;;;;;23.50;8.77;;;19.50;43.10;;;;;;5018168;28;20050;-65
2022/03/29 12:46:38;;;;;;;20.80;8.55;;;19.40;43.60;;;;;;5029261;28;20018;-65
2022/03/29 12:49:04;;;;;;;25.90;8.35;;;19.40;43.20;;;;;;5017989;28;20022;-65
2022/03/29 12:51:35;;;;;;;28.25;9.35;;;19.30;43.40;;;;;;5018905;28;20030;-65